Orlando, Florida
Current Conditions -  °F | °C
As of 6:53 AM on Sunday 25 Jan 2015 (Local Time) from KORL Reporting Station
Clear Clear  
Wind Chill: 42°   Ceiling: Unl
Heat Index: 46°   Visibility: 10mi
Dew Point: 35°   Wind: 7mph
Humidity: 66%   Direction: 320°NW
Pressure: 30.1"   Gusts: NA
Location:  28.54°N, 81.38°W
Report Text: KORL 251153Z 32006KT 10SM CLR 08/02 A3010 RMK AO2 SLP196 70009 T00780017 10089 20072 53017
Loading
Personal Weather Stations






























Interactive Weather Map New forecast layout! Learn more

10-Day Weather Forecast

Advertisements
Track Severe Weather on mobile